Time;durP1;ratioP1;P1;durP2;ratioP2;P2;SDS_P1;SDS_P2;PMS_P1;PMS_P2;Temp;Humidity;BMP_temperature;BMP_pressure;BME280_temperature;BME280_humidity;BME280_pressure;Samples;Min_cycle;Max_cycle;Signal;HPM_P1;HPM_P2
2021/07/30 00:01:38;;;;;;;6.05;3.15;;;;;;;17.16;60.27;99833.03;5055626;28;20052;-64
2021/07/30 00:04:06;;;;;;;5.30;3.13;;;;;;;17.17;60.68;99834.66;5055145;28;20053;-64
2021/07/30 00:06:33;;;;;;;7.18;3.17;;;;;;;17.18;60.59;99825.03;5055283;28;20053;-64
2021/07/30 00:09:02;;;;;;;9.77;4.07;;;;;;;17.18;60.38;99825.84;5054765;28;20060;-64
2021/07/30 00:11:29;;;;;;;7.40;3.15;;;;;;;17.14;60.40;99822.16;5055160;28;20052;-64
2021/07/30 00:13:57;;;;;;;5.78;2.75;;;;;;;17.08;60.10;99822.84;5054553;28;20056;-64
2021/07/30 00:16:24;;;;;;;6.55;3.67;;;;;;;16.99;61.25;99823.88;5055008;28;20057;-64
2021/07/30 00:18:52;;;;;;;7.15;3.38;;;;;;;16.96;61.39;99826.63;5054533;28;20501;-64
2021/07/30 00:21:19;;;;;;;6.07;2.90;;;;;;;16.97;61.52;99822.66;5054840;28;20508;-64
2021/07/30 00:23:46;;;;;;;7.30;3.70;;;;;;;16.95;61.59;99817.38;5053793;28;20392;-64
2021/07/30 00:26:15;;;;;;;7.05;3.03;;;;;;;16.88;61.76;99822.84;5054862;28;20053;-64
2021/07/30 00:28:43;;;;;;;6.43;3.42;;;;;;;16.82;62.08;99821.56;5054566;28;20045;-64
2021/07/30 00:31:10;;;;;;;5.60;3.45;;;;;;;16.80;61.81;99824.75;5054901;28;20068;-64
2021/07/30 00:33:37;;;;;;;4.95;3.03;;;;;;;16.77;61.51;99821.81;5054646;28;20052;-64
2021/07/30 00:36:05;;;;;;;9.88;3.50;;;;;;;16.77;61.18;99824.63;5054398;28;20060;-64
2021/07/30 00:38:33;;;;;;;6.88;3.10;;;;;;;16.81;61.59;99819.91;5053734;28;20047;-64
2021/07/30 00:41:01;;;;;;;6.22;3.25;;;;;;;16.80;61.46;99830.38;5054269;28;20053;-64
2021/07/30 00:43:30;;;;;;;7.28;3.42;;;;;;;16.80;61.35;99819.13;5050753;28;20060;-64
2021/07/30 00:45:59;;;;;;;7.13;3.92;;;;;;;16.83;61.44;99817.56;5053818;28;20121;-64
2021/07/30 00:48:29;;;;;;;4.88;3.30;;;;;;;16.84;62.13;99814.38;5053894;28;20068;-64
2021/07/30 00:50:56;;;;;;;6.97;3.53;;;;;;;16.88;61.50;99819.25;5054288;28;20057;-64
2021/07/30 00:53:24;;;;;;;7.38;3.30;;;;;;;16.95;61.57;99825.81;5053432;28;20056;-64
2021/07/30 00:55:52;;;;;;;7.97;3.33;;;;;;;16.95;61.33;99813.75;5053828;28;20048;-64
2021/07/30 00:58:20;;;;;;;5.45;3.17;;;;;;;16.97;61.10;99811.38;5054019;28;20049;-64
2021/07/30 01:00:48;;;;;;;6.75;3.20;;;;;;;16.95;61.00;99817.38;5053706;28;20052;-64
2021/07/30 01:03:15;;;;;;;7.28;3.80;;;;;;;16.99;61.24;99820.28;5053771;28;20049;-64
2021/07/30 01:05:45;;;;;;;6.85;3.47;;;;;;;17.03;61.51;99810.69;5054034;28;20497;-64
2021/07/30 01:08:13;;;;;;;6.95;3.22;;;;;;;17.03;61.99;99816.31;5053577;28;20406;-64
2021/07/30 01:10:41;;;;;;;6.28;4.07;;;;;;;17.08;62.13;99817.22;5054071;28;20045;-64
2021/07/30 01:13:08;;;;;;;5.68;3.58;;;;;;;17.14;61.13;99815.72;5052862;28;20053;-64
2021/07/30 01:15:36;;;;;;;5.60;3.90;;;;;;;17.16;61.61;99819.78;5053699;28;20049;-64
2021/07/30 01:18:04;;;;;;;8.00;3.80;;;;;;;17.22;61.65;99823.09;5052985;28;20049;-64
2021/07/30 01:20:36;;;;;;;5.40;3.30;;;;;;;17.25;62.36;99816.69;5053826;28;20056;-64
2021/07/30 01:23:08;;;;;;;5.85;3.53;;;;;;;17.29;62.45;99817.56;5053374;28;20470;-64
2021/07/30 01:25:35;;;;;;;6.57;3.08;;;;;;;17.36;60.54;99816.88;5053004;28;20343;-64
2021/07/30 01:28:02;;;;;;;6.03;3.20;;;;;;;17.40;60.69;99815.75;5053330;28;20057;-64
2021/07/30 01:30:30;;;;;;;7.03;3.08;;;;;;;17.41;61.71;99808.94;5052368;28;20397;-64
2021/07/30 01:32:58;;;;;;;9.98;4.35;;;;;;;17.50;61.52;99808.66;5052981;28;20061;-64
2021/07/30 01:35:25;;;;;;;6.25;3.83;;;;;;;17.56;61.21;99807.16;5052885;28;20052;-64
2021/07/30 01:37:52;;;;;;;6.07;3.03;;;;;;;17.63;60.86;99806.44;5052089;28;20056;-64
2021/07/30 01:40:22;;;;;;;5.75;3.05;;;;;;;17.66;60.66;99802.91;5053239;28;20053;-64
2021/07/30 01:42:49;;;;;;;6.35;3.30;;;;;;;17.68;60.83;99806.16;5052996;28;20140;-64
2021/07/30 01:45:16;;;;;;;6.20;3.30;;;;;;;17.74;61.08;99801.78;5053261;28;20059;-64
2021/07/30 01:47:44;;;;;;;6.13;3.15;;;;;;;17.77;60.88;99805.88;5053034;28;20446;-64
2021/07/30 01:50:12;;;;;;;5.82;3.22;;;;;;;17.80;60.84;99803.09;5051133;28;20537;-64
2021/07/30 01:52:39;;;;;;;4.57;3.10;;;;;;;17.85;60.94;99799.19;5052778;28;20056;-64
2021/07/30 01:55:07;;;;;;;6.10;3.25;;;;;;;17.90;60.57;99800.84;5052890;28;20053;-64
2021/07/30 01:57:36;;;;;;;4.88;3.10;;;;;;;17.94;60.37;99801.72;5053007;28;20079;-64
2021/07/30 02:00:05;;;;;;;7.15;3.60;;;;;;;17.97;60.64;99800.94;5052582;28;20055;-64
2021/07/30 02:02:33;;;;;;;6.78;3.30;;;;;;;18.01;60.61;99794.16;5052117;28;20052;-64
2021/07/30 02:05:01;;;;;;;7.75;3.10;;;;;;;18.05;60.22;99799.84;5051929;28;20056;-64
2021/07/30 02:07:29;;;;;;;4.72;2.92;;;;;;;18.11;60.29;99787.03;5053134;28;20053;-64
2021/07/30 02:09:56;;;;;;;6.60;3.30;;;;;;;18.13;59.42;99793.13;5052388;28;20509;-64
2021/07/30 02:12:23;;;;;;;6.63;2.95;;;;;;;18.14;59.19;99780.66;5052361;28;20375;-64
2021/07/30 02:14:51;;;;;;;5.35;2.97;;;;;;;18.20;58.86;99786.75;5052595;28;20088;-64
2021/07/30 02:17:18;;;;;;;5.05;3.38;;;;;;;18.23;58.84;99780.38;5052856;28;20164;-64
2021/07/30 02:19:46;;;;;;;6.93;3.45;;;;;;;18.24;58.55;99785.59;5048844;28;20490;-64
2021/07/30 02:22:13;;;;;;;6.13;3.22;;;;;;;18.28;58.21;99776.38;5051909;28;20486;-64
2021/07/30 02:24:40;;;;;;;7.47;3.70;;;;;;;18.31;57.76;99772.78;5050342;28;20049;-64
2021/07/30 02:27:08;;;;;;;5.53;3.33;;;;;;;18.33;57.35;99773.22;5052198;28;20052;-64
2021/07/30 02:29:35;;;;;;;5.88;3.45;;;;;;;18.36;57.32;99775.28;5052271;28;20053;-64
2021/07/30 02:32:05;;;;;;;5.80;2.90;;;;;;;18.37;57.41;99774.91;5052416;28;20068;-64
2021/07/30 02:34:32;;;;;;;6.18;3.20;;;;;;;18.41;57.27;99772.91;5052285;28;20057;-64
2021/07/30 02:37:00;;;;;;;7.78;3.13;;;;;;;18.46;56.94;99766.13;5052172;28;20056;-64
2021/07/30 02:39:31;;;;;;;8.23;3.70;;;;;;;18.51;56.96;99767.78;5050972;28;20057;-64
2021/07/30 02:41:58;;;;;;;7.70;3.72;;;;;;;18.45;57.17;99775.78;5050516;28;20052;-64
2021/07/30 02:44:25;;;;;;;7.15;3.42;;;;;;;18.39;57.30;99768.84;5051819;28;20048;-64
2021/07/30 02:46:53;;;;;;;5.88;3.47;;;;;;;18.40;56.89;99770.50;5052558;28;20053;-64
2021/07/30 02:49:21;;;;;;;7.10;3.25;;;;;;;18.44;57.33;99766.53;5051941;28;20067;-64
2021/07/30 02:51:48;;;;;;;11.90;4.03;;;;;;;18.47;57.30;99767.75;5052858;28;20371;-64
2021/07/30 02:54:16;;;;;;;7.68;3.65;;;;;;;18.51;57.63;99760.13;5051633;28;20064;-64
2021/07/30 02:56:43;;;;;;;9.82;3.55;;;;;;;18.52;57.76;99770.25;5052444;28;20061;-64
2021/07/30 02:59:10;;;;;;;8.50;3.40;;;;;;;18.53;57.59;99766.22;5051187;28;20478;-64
2021/07/30 03:01:37;;;;;;;7.18;3.33;;;;;;;18.55;57.42;99763.81;5052521;28;20049;-64
2021/07/30 03:04:05;;;;;;;6.45;3.20;;;;;;;18.57;57.75;99767.06;5051740;28;20060;-64
2021/07/30 03:06:34;;;;;;;6.13;3.20;;;;;;;18.50;57.89;99766.16;5051652;28;20060;-64
2021/07/30 03:09:01;;;;;;;8.45;3.50;;;;;;;18.52;57.72;99764.59;5051819;28;20168;-64
2021/07/30 03:11:28;;;;;;;7.20;3.33;;;;;;;18.55;57.65;99768.66;5052190;28;20057;-64
2021/07/30 03:13:56;;;;;;;5.90;3.25;;;;;;;18.55;57.93;99769.44;5052015;28;20053;-64
2021/07/30 03:16:23;;;;;;;6.50;3.55;;;;;;;18.56;57.49;99767.44;5052406;28;20045;-64
2021/07/30 03:18:50;;;;;;;6.93;3.33;;;;;;;18.54;57.78;99767.00;5050873;28;20053;-64
2021/07/30 03:21:18;;;;;;;5.15;3.10;;;;;;;18.53;58.11;99759.75;5051539;28;20076;-64
2021/07/30 03:23:46;;;;;;;5.93;3.00;;;;;;;18.49;57.25;99764.56;5051110;28;20051;-64
2021/07/30 03:26:14;;;;;;;6.72;3.30;;;;;;;18.46;57.68;99755.66;5053991;28;20057;-64
2021/07/30 03:28:41;;;;;;;7.32;3.70;;;;;;;18.46;57.83;99757.69;5055514;28;20049;-64
2021/07/30 03:31:08;;;;;;;7.55;4.10;;;;;;;18.50;57.88;99749.25;5055635;28;20049;-64
2021/07/30 03:33:36;;;;;;;7.68;3.35;;;;;;;18.52;57.17;99758.97;5055576;28;20053;-64
2021/07/30 03:36:04;;;;;;;5.32;3.10;;;;;;;18.43;57.17;99753.59;5055222;28;20473;-64
2021/07/30 03:38:31;;;;;;;6.57;3.50;;;;;;;18.48;57.04;99743.16;5055587;28;20524;-64
2021/07/30 03:41:04;;;;;;;7.32;3.40;;;;;;;18.46;57.27;99749.22;5054271;28;20048;-64
2021/07/30 03:43:31;;;;;;;6.50;3.35;;;;;;;18.42;57.02;99748.38;5055644;28;20057;-64
2021/07/30 03:45:59;;;;;;;5.68;3.20;;;;;;;18.33;57.67;99745.84;5055437;28;20048;-64
2021/07/30 03:48:26;;;;;;;7.15;3.38;;;;;;;18.23;57.57;99741.69;5055516;28;20045;-64
2021/07/30 03:50:53;;;;;;;6.00;3.42;;;;;;;18.12;58.04;99746.41;5055560;28;20045;-64
2021/07/30 03:53:21;;;;;;;5.65;3.45;;;;;;;18.12;57.81;99743.59;5055309;28;20397;-64
2021/07/30 03:55:48;;;;;;;5.82;3.90;;;;;;;18.05;58.20;99741.47;5054746;28;20045;-64
2021/07/30 03:58:17;;;;;;;5.75;3.50;;;;;;;18.08;59.22;99733.44;5054767;28;20056;-64
2021/07/30 04:00:44;;;;;;;5.28;3.05;;;;;;;17.98;58.55;99732.13;5054957;28;20057;-64
2021/07/30 04:03:12;;;;;;;8.70;3.30;;;;;;;18.00;58.69;99735.38;5054550;28;20053;-64
2021/07/30 04:05:39;;;;;;;8.23;3.50;;;;;;;17.90;58.82;99733.22;5054887;28;20062;-64
2021/07/30 04:08:06;;;;;;;6.90;3.80;;;;;;;18.01;59.25;99739.81;5054328;28;20088;-64
2021/07/30 04:10:34;;;;;;;8.07;3.40;;;;;;;18.08;59.37;99739.91;5054660;28;20053;-64
2021/07/30 04:13:01;;;;;;;6.93;3.35;;;;;;;18.08;58.83;99736.25;5054579;28;20399;-64
2021/07/30 04:15:30;;;;;;;8.15;3.60;;;;;;;18.14;59.00;99732.75;5054015;28;20060;-64
2021/07/30 04:17:57;;;;;;;6.85;3.67;;;;;;;18.20;58.88;99736.81;5054486;28;20482;-64
2021/07/30 04:20:25;;;;;;;6.75;4.40;;;;;;;18.24;58.68;99742.50;5054943;28;20057;-64
2021/07/30 04:22:52;;;;;;;6.18;3.58;;;;;;;18.29;58.60;99741.34;5054595;28;20486;-64
2021/07/30 04:25:19;;;;;;;5.97;3.38;;;;;;;18.29;58.56;99730.91;5052647;28;20079;-64
2021/07/30 04:27:47;;;;;;;7.60;4.03;;;;;;;18.28;58.69;99734.09;5054245;28;20056;-64
2021/07/30 04:30:14;;;;;;;5.32;3.50;;;;;;;18.26;58.23;99729.66;5053978;28;20053;-64
2021/07/30 04:32:43;;;;;;;6.03;3.03;;;;;;;18.18;59.20;99730.75;5054614;28;20056;-64
2021/07/30 04:35:10;;;;;;;6.03;3.23;;;;;;;18.24;59.09;99737.69;5053342;28;20053;-64
2021/07/30 04:37:40;;;;;;;7.63;3.30;;;;;;;18.29;59.35;99736.53;5054257;28;20052;-64
2021/07/30 04:40:10;;;;;;;10.30;3.72;;;;;;;18.35;59.01;99743.47;5052845;28;20056;-64
2021/07/30 04:42:38;;;;;;;5.43;3.20;;;;;;;18.39;58.66;99733.00;5054433;28;20060;-64
2021/07/30 04:45:06;;;;;;;6.25;3.42;;;;;;;18.43;59.37;99736.69;5054349;28;20061;-64
2021/07/30 04:47:33;;;;;;;6.22;3.38;;;;;;;18.46;58.87;99732.31;5054134;28;20049;-64
2021/07/30 04:50:02;;;;;;;5.60;3.50;;;;;;;18.46;58.96;99732.31;5054029;28;20049;-64
2021/07/30 04:52:29;;;;;;;7.00;3.60;;;;;;;18.49;58.32;99734.34;5054419;28;20053;-64
2021/07/30 04:54:56;;;;;;;8.32;3.30;;;;;;;18.53;58.48;99735.19;5053087;28;20063;-64
2021/07/30 04:57:24;;;;;;;7.10;3.40;;;;;;;18.54;58.75;99733.16;5054046;28;20052;-64
2021/07/30 04:59:51;;;;;;;5.78;3.20;;;;;;;18.51;58.66;99728.31;5054282;28;20064;-64
2021/07/30 05:02:18;;;;;;;5.32;3.33;;;;;;;18.52;58.31;99730.75;5053851;28;20056;-64
2021/07/30 05:04:45;;;;;;;5.93;3.08;;;;;;;18.55;58.28;99729.16;5053860;28;20482;-64
2021/07/30 05:07:14;;;;;;;5.45;3.22;;;;;;;18.46;58.55;99716.19;5037261;28;20076;-64
2021/07/30 05:09:42;;;;;;;8.43;4.07;;;;;;;18.38;59.04;99725.75;5052205;28;20049;-64
2021/07/30 05:12:09;;;;;;;6.72;3.88;;;;;;;18.48;59.15;99717.78;5051945;28;20388;-64
2021/07/30 05:14:36;;;;;;;5.35;3.38;;;;;;;18.53;59.05;99721.09;5052781;28;20052;-64
2021/07/30 05:17:04;;;;;;;5.78;3.58;;;;;;;18.56;58.79;99720.31;5053200;28;20446;-64
2021/07/30 05:19:31;;;;;;;8.07;3.67;;;;;;;18.54;59.26;99713.44;5053565;28;20064;-64
2021/07/30 05:21:59;;;;;;;5.72;3.75;;;;;;;18.58;59.04;99720.75;5053861;28;20071;-64
2021/07/30 05:24:27;;;;;;;4.30;3.17;;;;;;;18.57;58.77;99721.94;5052459;28;20049;-64
2021/07/30 05:26:55;;;;;;;5.97;3.25;;;;;;;18.59;57.82;99718.72;5053834;28;20052;-64
2021/07/30 05:29:22;;;;;;;4.25;2.88;;;;;;;18.67;57.82;99720.44;5053447;28;20416;-64
2021/07/30 05:31:49;;;;;;;6.18;2.53;;;;;;;18.62;57.33;99715.94;5053685;28;20052;-64
2021/07/30 05:34:17;;;;;;;6.88;2.83;;;;;;;18.74;56.38;99717.66;5053411;28;20053;-64
2021/07/30 05:36:44;;;;;;;6.18;2.55;;;;;;;18.63;56.34;99706.28;5053347;28;20481;-64
2021/07/30 05:39:11;;;;;;;5.20;2.80;;;;;;;18.67;56.10;99712.78;5051954;28;20060;-64
2021/07/30 05:41:41;;;;;;;5.83;2.33;;;;;;;18.41;56.89;99704.44;5053414;28;20049;-64
2021/07/30 05:44:09;;;;;;;4.60;2.50;;;;;;;18.55;56.24;99706.59;5052981;28;20979;-64
2021/07/30 05:46:38;;;;;;;3.60;2.70;;;;;;;18.64;56.22;99707.88;5053304;28;20139;-64
2021/07/30 05:49:06;;;;;;;5.90;2.60;;;;;;;18.62;55.90;99701.81;5052520;28;20064;-64
2021/07/30 05:51:34;;;;;;;4.57;2.33;;;;;;;18.69;55.53;99703.94;5053043;28;20501;-64
2021/07/30 05:54:02;;;;;;;4.38;2.63;;;;;;;18.64;55.92;99704.25;5051983;28;20069;-64
2021/07/30 05:56:29;;;;;;;4.28;2.08;;;;;;;18.63;56.24;99702.66;5052610;28;20482;-64
2021/07/30 05:58:59;;;;;;;3.33;2.22;;;;;;;18.48;57.44;99703.69;5053090;28;20375;-51
2021/07/30 06:01:26;;;;;;;5.38;2.33;;;;;;;18.72;56.80;99696.69;5052609;28;20053;-51
2021/07/30 06:03:53;;;;;;;4.65;2.45;;;;;;;18.42;57.56;99697.63;5052574;28;20053;-53
2021/07/30 06:06:21;;;;;;;4.15;2.22;;;;;;;18.50;57.33;99693.66;5052421;28;20056;-50
2021/07/30 06:08:48;;;;;;;5.05;2.88;;;;;;;18.77;56.10;99699.97;5052368;28;20052;-49
2021/07/30 06:11:15;;;;;;;5.82;2.70;;;;;;;18.62;56.45;99696.19;5051512;28;20045;-50
2021/07/30 06:13:43;;;;;;;4.38;2.72;;;;;;;18.71;55.96;99689.41;5052826;28;20045;-64
2021/07/30 06:16:11;;;;;;;5.85;3.35;;;;;;;18.77;55.10;99701.97;5050367;28;20477;-64
2021/07/30 06:18:39;;;;;;;4.13;2.47;;;;;;;18.92;54.20;99700.94;5048893;28;20053;-64
2021/07/30 06:21:06;;;;;;;5.40;2.33;;;;;;;19.10;53.85;99697.44;5051494;28;20499;-64
2021/07/30 06:23:34;;;;;;;3.17;2.22;;;;;;;19.22;53.28;99694.31;5052113;28;20517;-64
2021/07/30 06:26:01;;;;;;;6.53;2.53;;;;;;;19.29;53.37;99694.34;5052760;28;20053;-64
2021/07/30 06:28:28;;;;;;;5.28;2.50;;;;;;;19.32;53.13;99687.09;5051946;28;20057;-64
2021/07/30 06:30:56;;;;;;;6.35;2.75;;;;;;;19.38;53.30;99686.38;5051458;28;20409;-64
2021/07/30 06:33:28;;;;;;;4.40;2.40;;;;;;;19.56;52.54;99686.44;5051997;28;20048;-64
2021/07/30 06:35:56;;;;;;;4.50;2.15;;;;;;;19.37;53.16;99684.72;5052307;28;20057;-64
2021/07/30 06:38:23;;;;;;;5.28;2.35;;;;;;;19.68;52.24;99682.50;5050969;28;20049;-64
2021/07/30 06:40:51;;;;;;;4.68;1.90;;;;;;;19.72;51.81;99685.34;5051197;28;20489;-64
2021/07/30 06:43:18;;;;;;;3.72;1.88;;;;;;;19.85;51.99;99686.63;5052538;28;20059;-64
2021/07/30 06:45:45;;;;;;;4.47;2.10;;;;;;;19.82;51.84;99693.06;5052402;28;20057;-64
2021/07/30 06:48:12;;;;;;;4.80;2.10;;;;;;;19.86;51.63;99691.91;5051902;28;20053;-64
2021/07/30 06:50:41;;;;;;;4.78;2.25;;;;;;;20.09;50.65;99690.75;5052439;28;20398;-64
2021/07/30 06:53:09;;;;;;;4.85;2.30;;;;;;;20.15;50.87;99691.19;5051906;28;20049;-65
2021/07/30 06:55:36;;;;;;;5.20;1.90;;;;;;;20.33;49.97;99697.72;5045695;28;20418;-65
2021/07/30 06:58:03;;;;;;;4.35;2.10;;;;;;;20.43;49.64;99696.09;5040665;28;20049;-65
2021/07/30 07:00:30;;;;;;;6.07;2.30;;;;;;;20.70;49.28;99690.94;5052632;28;20057;-64
2021/07/30 07:02:58;;;;;;;3.00;2.03;;;;;;;20.57;49.08;99693.31;5052385;28;20049;-64
2021/07/30 07:05:25;;;;;;;3.42;2.38;;;;;;;20.76;49.02;99688.53;5053657;28;20485;-65
2021/07/30 07:07:53;;;;;;;3.88;2.20;;;;;;;20.60;49.25;99691.72;5053508;28;20052;-65
2021/07/30 07:10:21;;;;;;;5.17;2.10;;;;;;;20.80;48.90;99681.66;5053534;28;20053;-65
2021/07/30 07:12:48;;;;;;;4.97;2.00;;;;;;;21.22;48.92;99682.03;5053033;28;21003;-65
2021/07/30 07:15:15;;;;;;;3.15;2.10;;;;;;;21.23;48.45;99681.66;5046050;28;20050;-65
2021/07/30 07:17:42;;;;;;;4.20;2.08;;;;;;;21.54;47.72;99684.03;5052762;28;20505;-65
2021/07/30 07:20:11;;;;;;;3.40;1.95;;;;;;;21.64;47.40;99678.34;5053672;28;20061;-65
2021/07/30 07:22:38;;;;;;;3.13;2.03;;;;;;;21.94;47.11;99664.88;5053274;28;20060;-65
2021/07/30 07:25:08;;;;;;;3.47;1.83;;;;;;;22.02;45.49;99666.44;5052985;28;20052;-65
2021/07/30 07:27:36;;;;;;;3.65;2.00;;;;;;;21.75;46.60;99663.31;5049834;28;20064;-65
2021/07/30 07:30:04;;;;;;;3.53;2.17;;;;;;;22.00;45.17;99677.41;5050233;28;20061;-65
2021/07/30 07:32:32;;;;;;;6.47;2.30;;;;;;;22.15;44.87;99670.44;5053101;28;20060;-65
2021/07/30 07:34:59;;;;;;;7.72;2.53;;;;;;;22.19;45.18;99667.56;5053369;28;20060;-66
2021/07/30 07:37:28;;;;;;;4.57;2.05;;;;;;;22.53;45.33;99672.66;5053957;28;20052;-64
2021/07/30 07:39:55;;;;;;;4.33;2.27;;;;;;;22.56;44.18;99658.47;5054134;28;20048;-64
2021/07/30 07:42:23;;;;;;;3.80;2.00;;;;;;;23.16;43.25;99676.28;5046680;28;20474;-64
2021/07/30 07:44:51;;;;;;;5.50;2.00;;;;;;;23.79;42.02;99661.81;5052556;28;20049;-64
2021/07/30 07:47:19;;;;;;;6.10;2.10;;;;;;;24.21;41.08;99648.28;5052219;28;20087;-64
2021/07/30 07:49:46;;;;;;;5.53;2.50;;;;;;;24.74;39.58;99653.59;5054727;28;20053;-64
2021/07/30 07:52:13;;;;;;;3.35;2.00;;;;;;;25.83;37.73;99654.06;5049106;28;20056;-64
2021/07/30 07:54:41;;;;;;;8.43;2.30;;;;;;;26.21;36.66;99645.94;5054001;28;20056;-64
2021/07/30 07:57:08;;;;;;;3.90;2.10;;;;;;;26.64;35.83;99650.69;5045348;28;20064;-64
2021/07/30 07:59:38;;;;;;;5.97;2.25;;;;;;;26.39;35.15;99636.16;5053876;28;20068;-64
2021/07/30 08:02:06;;;;;;;4.13;1.98;;;;;;;26.18;36.20;99643.16;5046117;28;20405;-64
2021/07/30 08:04:34;;;;;;;3.25;1.70;;;;;;;26.53;35.22;99644.41;5052755;28;20417;-64
2021/07/30 08:07:03;;;;;;;4.60;2.13;;;;;;;26.83;34.26;99640.41;5052965;28;20490;-64
2021/07/30 08:09:30;;;;;;;4.32;1.75;;;;;;;26.53;34.09;99635.84;5052715;28;20080;-64
2021/07/30 08:11:57;;;;;;;3.35;1.77;;;;;;;27.38;33.17;99637.78;5044647;28;20261;-64
2021/07/30 08:14:25;;;;;;;4.45;1.90;;;;;;;28.03;32.04;99641.69;5052376;28;20053;-64
2021/07/30 08:16:53;;;;;;;4.18;1.90;;;;;;;27.48;32.03;99638.75;5046828;28;20045;-64
2021/07/30 08:19:21;;;;;;;4.78;2.10;;;;;;;27.98;32.07;99627.97;5052740;28;20462;-64
2021/07/30 08:21:48;;;;;;;3.00;1.60;;;;;;;28.52;30.00;99633.66;5045197;28;20068;-64
2021/07/30 08:24:15;;;;;;;3.85;1.88;;;;;;;28.71;29.93;99634.66;5051950;28;20413;-65
2021/07/30 08:26:43;;;;;;;4.20;1.98;;;;;;;29.50;29.39;99631.97;5045020;28;20056;-65
2021/07/30 08:29:10;;;;;;;3.50;1.65;;;;;;;30.94;28.38;99626.41;5052613;28;20053;-65
2021/07/30 08:31:37;;;;;;;4.35;1.98;;;;;;;31.42;26.60;99618.16;5044923;28;20052;-65
2021/07/30 08:34:06;;;;;;;3.42;1.75;;;;;;;31.58;26.48;99625.69;5052665;28;20049;-65
2021/07/30 08:36:33;;;;;;;;;;;;;;;31.74;25.71;99621.69;5043797;28;20425;-65
2021/07/30 08:39:01;;;;;;;4.63;1.77;;;;;;;31.23;26.22;99626.00;5052558;28;20285;-65
2021/07/30 08:41:28;;;;;;;3.53;1.77;;;;;;;30.94;26.57;99626.41;5048995;28;20064;-65
2021/07/30 08:43:56;;;;;;;5.85;2.20;;;;;;;30.90;27.00;99625.78;5049903;28;20048;-65
2021/07/30 08:46:25;;;;;;;4.23;1.80;;;;;;;31.10;26.45;99617.50;5044538;28;20045;-65
2021/07/30 08:48:53;;;;;;;2.72;1.58;;;;;;;30.95;26.74;99622.25;5051127;28;20052;-65
2021/07/30 08:51:23;;;;;;;2.45;1.98;;;;;;;31.53;25.33;99620.59;5046272;28;20049;-65
2021/07/30 08:53:50;;;;;;;4.50;2.00;;;;;;;31.03;25.70;99609.16;5052443;28;20049;-65
2021/07/30 08:56:19;;;;;;;3.83;1.80;;;;;;;31.91;24.70;99614.28;5051948;28;20474;-65
2021/07/30 08:58:47;;;;;;;3.03;2.08;;;;;;;32.40;23.98;99605.84;5049143;28;20052;-65
2021/07/30 09:01:15;;;;;;;3.50;1.90;;;;;;;33.81;22.63;99606.03;5044937;28;20050;-65
2021/07/30 09:03:44;;;;;;;5.20;1.80;;;;;;;34.27;22.03;99603.50;5051163;28;20052;-65
2021/07/30 09:06:17;;;;;;;2.88;1.70;;;;;;;34.70;21.59;99609.69;5051560;28;20044;-65
2021/07/30 09:08:46;;;;;;;2.85;1.85;;;;;;;35.38;20.93;99599.03;5044991;28;20409;-65
2021/07/30 09:11:29;;;;;;;3.03;1.60;;;;;;;36.23;19.05;99606.56;5049948;28;20076;-65
2021/07/30 09:13:57;;;;;;;3.72;1.35;;;;;;;36.38;18.86;99594.81;5049700;28;20053;-65
2021/07/30 09:16:24;;;;;;;3.10;1.50;;;;;;;36.92;18.98;99580.41;5043682;28;20045;-63
2021/07/30 09:18:53;;;;;;;3.67;1.60;;;;;;;36.73;19.94;99587.97;5051786;28;20057;-65
2021/07/30 09:21:21;;;;;;;;;;;;;;;37.33;18.38;99599.59;5044003;28;20056;-65
2021/07/30 09:23:52;;;;;;;4.20;1.42;;;;;;;35.86;20.26;99586.16;5049730;28;19925;-65
2021/07/30 09:26:35;;;;;;;2.90;1.70;;;;;;;36.68;19.38;99595.28;5043415;28;20053;-65
2021/07/30 09:29:04;;;;;;;4.05;1.60;;;;;;;37.33;18.89;99591.69;5052033;28;20049;-65
2021/07/30 09:31:44;;;;;;;3.67;1.80;;;;;;;37.13;19.46;99575.25;5043654;28;20406;-65
2021/07/30 09:34:17;;;;;;;3.40;1.77;;;;;;;37.27;18.77;99581.38;5051042;28;20072;-65
2021/07/30 09:36:46;;;;;;;2.85;1.60;;;;;;;38.15;17.94;99572.59;5047154;28;20060;-65
2021/07/30 09:39:16;;;;;;;3.95;1.80;;;;;;;38.59;17.07;99573.88;5050903;28;20433;-65
2021/07/30 09:42:00;;;;;;;4.15;1.90;;;;;;;38.00;17.44;99566.22;5043765;28;20052;-65
2021/07/30 09:44:28;;;;;;;4.05;2.20;;;;;;;38.09;17.35;99563.06;5050481;28;20049;-65
2021/07/30 09:47:03;;;;;;;3.45;1.98;;;;;;;39.51;16.20;99567.22;5043889;28;20398;-65
2021/07/30 09:49:45;;;;;;;3.95;2.28;;;;;;;39.58;16.37;99566.66;5050889;28;20056;-65
2021/07/30 09:52:14;;;;;;;2.92;1.80;;;;;;;40.10;15.12;99559.13;5045394;28;20049;-65
2021/07/30 09:54:48;;;;;;;2.80;1.83;;;;;;;39.93;15.80;99559.28;5049915;28;20045;-65
2021/07/30 09:57:17;;;;;;;3.42;2.13;;;;;;;39.02;16.70;99564.00;5043354;28;20691;-65
2021/07/30 09:59:45;;;;;;;7.95;4.97;;;;;;;37.75;17.38;99560.13;5049631;28;20049;-65
2021/07/30 10:02:19;;;;;;;6.20;3.92;;;;;;;39.80;16.08;99551.13;5047007;28;20472;-66
2021/07/30 10:04:49;;;;;;;4.20;2.53;;;;;;;40.56;15.05;99540.66;5051114;28;20057;-65
2021/07/30 10:07:18;;;;;;;4.07;2.10;;;;;;;39.49;16.07;99544.44;5043918;28;20048;-67
2021/07/30 10:09:52;;;;;;;4.70;2.30;;;;;;;38.02;17.62;99558.56;5051498;28;20111;-66
2021/07/30 10:12:20;;;;;;;4.65;2.13;;;;;;;37.81;18.17;99549.28;5043477;28;20057;-65
2021/07/30 10:14:49;;;;;;;3.35;2.08;;;;;;;38.58;17.22;99525.75;5049987;28;20079;-64
2021/07/30 10:17:17;;;;;;;3.15;1.90;;;;;;;37.86;18.21;99533.94;5049950;28;20048;-64
2021/07/30 10:19:45;;;;;;;3.35;2.00;;;;;;;37.64;18.32;99539.78;5050643;28;20060;-64
2021/07/30 10:22:15;;;;;;;4.28;2.03;;;;;;;38.43;17.93;99525.22;5050162;28;20061;-64
2021/07/30 10:24:53;;;;;;;4.68;2.58;;;;;;;39.26;16.84;99516.75;5049864;28;20045;-64
2021/07/30 10:27:23;;;;;;;;;;;;;;;40.25;16.46;99515.75;5049853;28;20465;-64
2021/07/30 10:30:07;;;;;;;4.68;2.05;;;;;;;40.72;15.05;99514.75;5044064;28;20298;-65
2021/07/30 10:32:57;;;;;;;5.25;2.40;;;;;;;40.47;16.08;99511.06;5050184;28;20049;-66
2021/07/30 10:35:48;;;;;;;3.63;2.40;;;;;;;40.44;15.97;99509.22;5048104;28;20068;-65
2021/07/30 10:38:21;;;;;;;3.80;2.17;;;;;;;38.61;17.55;99524.66;5046187;28;20057;-64
2021/07/30 10:41:19;;;;;;;4.95;1.80;;;;;;;37.28;19.53;99519.06;5039892;28;20408;-64
2021/07/30 10:44:07;;;;;;;4.07;2.00;;;;;;;35.57;20.70;99513.44;5031383;28;20048;-64
2021/07/30 10:46:35;;;;;;;2.70;1.93;;;;;;;34.78;21.68;99517.50;5049458;28;20053;-64
2021/07/30 10:49:02;;;;;;;3.87;2.13;;;;;;;33.59;23.77;99514.00;5051287;28;20366;-64
2021/07/30 10:51:31;;;;;;;6.47;2.50;;;;;;;33.49;23.92;99511.19;5050953;28;20483;-64
2021/07/30 10:54:00;;;;;;;4.65;2.15;;;;;;;33.40;24.01;99519.16;5049680;28;20056;-62
2021/07/30 10:56:49;;;;;;;2.85;2.20;;;;;;;33.27;24.11;99493.47;5042646;28;20052;-62
2021/07/30 10:59:20;;;;;;;3.95;2.10;;;;;;;33.35;23.40;99501.22;5049936;28;20053;-64
2021/07/30 11:01:58;;;;;;;4.45;2.20;;;;;;;32.64;24.74;99500.03;5040855;28;20045;-64
2021/07/30 11:04:26;;;;;;;4.68;2.17;;;;;;;32.86;24.95;99501.78;5049103;28;20049;-64
2021/07/30 11:06:55;;;;;;;3.95;2.30;;;;;;;32.75;24.88;99497.38;5043425;28;20057;-64
2021/07/30 11:09:26;;;;;;;3.20;2.22;;;;;;;32.68;25.00;99492.00;5050898;28;20057;-64
2021/07/30 11:11:58;;;;;;;4.07;2.08;;;;;;;32.25;25.76;99508.56;5051301;28;20057;-64
2021/07/30 11:14:28;;;;;;;4.35;2.35;;;;;;;31.73;26.75;99499.97;5050671;28;20053;-64
2021/07/30 11:16:56;;;;;;;5.65;2.35;;;;;;;32.26;25.38;99509.38;5040360;28;20049;-64
2021/07/30 11:19:25;;;;;;;;;;;;;;;31.78;26.51;99500.59;5050419;28;20053;-64
2021/07/30 11:21:52;;;;;;;3.38;2.00;;;;;;;31.73;26.14;99491.31;5049735;28;20277;-64
2021/07/30 11:24:21;;;;;;;3.80;2.40;;;;;;;31.76;25.89;99498.97;5041918;28;20049;-64
2021/07/30 11:26:49;;;;;;;6.28;2.40;;;;;;;32.63;24.74;99475.34;5043292;28;20053;-64
2021/07/30 11:29:19;;;;;;;3.83;2.65;;;;;;;32.91;24.56;99478.84;5050490;28;20056;-64
2021/07/30 11:31:55;;;;;;;3.72;2.80;;;;;;;34.86;22.60;99480.22;5042349;28;20060;-64
2021/07/30 11:34:28;;;;;;;4.50;2.30;;;;;;;35.52;22.03;99487.28;5048634;28;20053;-64
2021/07/30 11:36:56;;;;;;;3.72;2.20;;;;;;;34.72;22.16;99484.81;5045686;28;20052;-64
2021/07/30 11:39:35;;;;;;;3.50;2.25;;;;;;;34.09;23.48;99476.50;5049612;28;20524;-64
2021/07/30 11:42:03;;;;;;;3.28;2.00;;;;;;;33.34;24.28;99473.66;5042822;28;20063;-64